Time;durP1;ratioP1;P1;durP2;ratioP2;P2;SDS_P1;SDS_P2;PMS_P1;PMS_P2;Temp;Humidity;BMP_temperature;BMP_pressure;BME280_temperature;BME280_humidity;BME280_pressure;Samples;Min_cycle;Max_cycle;Signal;HPM_P1;HPM_P2
2022/07/13 00:00:38;;;;;;;5.30;4.80;;;;;;;;;;6239753;22;20438;-81
2022/07/13 00:03:04;;;;;;;6.15;4.70;;;;;;;;;;6268505;22;20384;-79
2022/07/13 00:05:30;;;;;;;7.82;4.75;;;;;;;;;;6214490;22;20020;-80
2022/07/13 00:07:56;;;;;;;5.78;4.55;;;;;;;;;;6268317;22;20457;-80
2022/07/13 00:10:25;;;;;;;6.10;5.43;;;;;;;;;;6269407;22;20012;-81
2022/07/13 00:13:10;;;;;;;7.50;6.07;;;;;;;;;;6243252;22;20034;-81
2022/07/13 00:15:36;;;;;;;6.05;5.45;;;;;;;;;;6270520;22;20776;-79
2022/07/13 00:18:02;;;;;;;6.65;5.93;;;;;;;;;;6271613;22;20098;-81
2022/07/13 00:20:29;;;;;;;6.50;5.20;;;;;;;;;;6272122;22;20020;-81
2022/07/13 00:22:58;;;;;;;5.53;5.13;;;;;;;;;;6245918;22;20020;-81
2022/07/13 00:25:24;;;;;;;7.95;5.43;;;;;;;;;;6216337;22;20061;-79
2022/07/13 00:27:50;;;;;;;5.65;5.10;;;;;;;;;;6269209;22;20019;-79
2022/07/13 00:30:16;;;;;;;7.03;5.13;;;;;;;;;;6242493;22;20576;-80
2022/07/13 00:32:42;;;;;;;6.25;5.30;;;;;;;;;;6271426;22;20020;-82
2022/07/13 00:35:08;;;;;;;5.82;5.07;;;;;;;;;;6219668;22;20094;-80
2022/07/13 00:37:34;;;;;;;8.93;5.85;;;;;;;;;;6272630;22;20016;-79
2022/07/13 00:40:01;;;;;;;5.45;4.75;;;;;;;;;;6220222;22;20020;-81
2022/07/13 00:42:27;;;;;;;5.68;4.72;;;;;;;;;;6245350;22;20023;-82
2022/07/13 00:44:53;;;;;;;5.80;4.72;;;;;;;;;;6272344;22;20081;-83
2022/07/13 00:47:19;;;;;;;5.15;4.75;;;;;;;;;;6271639;22;20016;-80
2022/07/13 00:49:46;;;;;;;6.47;5.10;;;;;;;;;;6271105;22;20122;-81
2022/07/13 00:52:12;;;;;;;5.50;4.70;;;;;;;;;;6271824;22;20039;-82
2022/07/13 00:55:04;;;;;;;5.10;4.70;;;;;;;;;;6272707;22;20027;-81
2022/07/13 00:57:35;;;;;;;7.90;4.75;;;;;;;;;;6243885;22;20329;-80
2022/07/13 01:00:05;;;;;;;5.32;4.82;;;;;;;;;;6271337;22;20024;-79
2022/07/13 01:02:31;;;;;;;6.45;5.05;;;;;;;;;;6272390;22;20525;-82
2022/07/13 01:04:59;;;;;;;5.38;4.85;;;;;;;;;;6244655;22;20022;-80
2022/07/13 01:07:25;;;;;;;6.03;5.10;;;;;;;;;;6272407;22;20015;-81
2022/07/13 01:09:51;;;;;;;5.72;4.65;;;;;;;;;;6273586;22;20016;-81
2022/07/13 01:12:18;;;;;;;6.30;5.32;;;;;;;;;;6192393;22;20019;-81
2022/07/13 01:14:44;;;;;;;5.13;4.63;;;;;;;;;;6269213;22;20461;-81
2022/07/13 01:17:23;;;;;;;10.98;5.28;;;;;;;;;;6269712;22;20016;-81
2022/07/13 01:19:50;;;;;;;6.30;4.70;;;;;;;;;;6268858;22;20498;-81
2022/07/13 01:22:21;;;;;;;6.82;4.72;;;;;;;;;;6243420;22;20020;-82
2022/07/13 01:24:49;;;;;;;6.63;4.95;;;;;;;;;;6270204;22;20387;-80
2022/07/13 01:27:16;;;;;;;12.57;4.95;;;;;;;;;;6271184;22;20016;-80
2022/07/13 01:29:45;;;;;;;7.20;5.28;;;;;;;;;;6268610;22;20106;-81
2022/07/13 01:32:11;;;;;;;5.00;4.50;;;;;;;;;;6272204;22;20020;-81
2022/07/13 01:34:37;;;;;;;7.95;4.93;;;;;;;;;;6271093;22;20015;-80
2022/07/13 01:37:04;;;;;;;5.72;4.88;;;;;;;;;;6272267;22;20111;-81
2022/07/13 01:39:30;;;;;;;6.28;4.93;;;;;;;;;;6245008;22;20034;-82
2022/07/13 01:41:56;;;;;;;5.75;4.75;;;;;;;;;;6272529;22;20461;-81
2022/07/13 01:44:22;;;;;;;9.82;5.07;;;;;;;;;;6272387;22;20400;-81
2022/07/13 01:46:51;;;;;;;12.95;5.47;;;;;;;;;;6269854;22;20024;-81
2022/07/13 01:49:17;;;;;;;8.60;5.65;;;;;;;;;;6270544;22;20542;-81
2022/07/13 01:51:43;;;;;;;8.95;5.50;;;;;;;;;;6266927;22;20394;-81
2022/07/13 01:54:10;;;;;;;5.35;4.95;;;;;;;;;;6240808;22;20343;-79
2022/07/13 01:56:36;;;;;;;8.80;5.28;;;;;;;;;;6265841;22;20026;-80
2022/07/13 01:59:02;;;;;;;10.57;5.55;;;;;;;;;;6238722;22;20380;-81
2022/07/13 02:01:28;;;;;;;6.43;5.70;;;;;;;;;;6212995;22;20336;-80
2022/07/13 02:03:55;;;;;;;5.50;5.05;;;;;;;;;;6267366;22;20111;-79
2022/07/13 02:06:27;;;;;;;14.02;5.68;;;;;;;;;;6267246;22;20659;-81
2022/07/13 02:08:53;;;;;;;6.10;5.55;;;;;;;;;;6266287;22;20024;-80
2022/07/13 02:11:19;;;;;;;10.20;6.22;;;;;;;;;;6189048;22;20472;-80
2022/07/13 02:13:46;;;;;;;8.80;5.90;;;;;;;;;;6266022;22;20054;-79
2022/07/13 02:16:12;;;;;;;6.75;5.88;;;;;;;;;;6267216;22;20325;-80
2022/07/13 02:18:39;;;;;;;7.05;6.38;;;;;;;;;;6266844;22;20019;-81
2022/07/13 02:21:05;;;;;;;7.72;7.00;;;;;;;;;;6265489;22;20012;-79
2022/07/13 02:23:40;;;;;;;7.88;7.18;;;;;;;;;;6266271;22;20078;-81
2022/07/13 02:26:06;;;;;;;10.32;7.20;;;;;;;;;;6266176;22;20023;-79
2022/07/13 02:28:32;;;;;;;7.63;6.80;;;;;;;;;;6263709;22;20015;-79
2022/07/13 02:30:58;;;;;;;10.18;7.15;;;;;;;;;;6265940;22;20347;-79
2022/07/13 02:33:24;;;;;;;7.35;6.60;;;;;;;;;;6239817;22;20026;-80
2022/07/13 02:35:57;;;;;;;8.05;7.25;;;;;;;;;;6265642;22;20027;-80
2022/07/13 02:38:23;;;;;;;10.20;7.60;;;;;;;;;;6264538;22;20118;-81
2022/07/13 02:40:49;;;;;;;8.38;7.65;;;;;;;;;;6265440;22;20019;-80
2022/07/13 02:43:15;;;;;;;9.25;7.65;;;;;;;;;;6239504;22;20024;-80
2022/07/13 02:45:41;;;;;;;8.82;7.90;;;;;;;;;;6267987;22;20140;-79
2022/07/13 02:48:10;;;;;;;11.00;7.70;;;;;;;;;;6270352;22;20024;-81
2022/07/13 02:50:36;;;;;;;8.57;7.78;;;;;;;;;;6217104;22;20015;-81
2022/07/13 02:53:05;;;;;;;10.50;8.18;;;;;;;;;;6270489;22;20019;-79
2022/07/13 02:55:32;;;;;;;10.85;8.70;;;;;;;;;;6191997;22;20062;-81
2022/07/13 02:58:00;;;;;;;9.43;8.48;;;;;;;;;;6242698;22;20090;-79
2022/07/13 03:00:26;;;;;;;11.68;8.50;;;;;;;;;;6269469;22;20119;-81
2022/07/13 03:02:52;;;;;;;10.82;9.35;;;;;;;;;;6242373;22;20027;-81
2022/07/13 03:05:25;;;;;;;12.40;8.93;;;;;;;;;;6266679;22;20015;-79
2022/07/13 03:07:51;;;;;;;10.13;9.05;;;;;;;;;;6267454;22;20058;-80
2022/07/13 03:10:18;;;;;;;14.07;9.40;;;;;;;;;;6214300;22;20020;-80
2022/07/13 03:12:44;;;;;;;9.85;8.77;;;;;;;;;;6212768;22;20012;-83
2022/07/13 03:15:10;;;;;;;11.07;9.05;;;;;;;;;;6267813;22;20019;-81
2022/07/13 03:17:40;;;;;;;13.10;9.15;;;;;;;;;;6267006;22;20015;-80
2022/07/13 03:20:13;;;;;;;9.57;8.30;;;;;;;;;;6241066;22;20042;-79
2022/07/13 03:22:45;;;;;;;10.18;9.18;;;;;;;;;;6266725;22;20123;-79
2022/07/13 03:25:14;;;;;;;13.10;9.30;;;;;;;;;;6239685;22;20023;-81
2022/07/13 03:27:40;;;;;;;10.38;9.38;;;;;;;;;;6264474;22;20045;-81
2022/07/13 03:30:10;;;;;;;11.45;9.07;;;;;;;;;;6266245;22;20016;-78
2022/07/13 03:32:36;;;;;;;10.35;9.35;;;;;;;;;;6266681;22;20023;-81
2022/07/13 03:35:02;;;;;;;9.07;8.27;;;;;;;;;;6240366;22;20069;-79
2022/07/13 03:37:28;;;;;;;13.93;9.80;;;;;;;;;;6266869;22;20450;-80
2022/07/13 03:39:55;;;;;;;9.68;8.68;;;;;;;;;;6239226;22;20016;-80
2022/07/13 03:42:21;;;;;;;11.85;9.30;;;;;;;;;;6266385;22;20065;-79
2022/07/13 03:44:50;;;;;;;10.05;8.77;;;;;;;;;;6265219;22;20102;-80
2022/07/13 03:47:16;;;;;;;10.15;9.05;;;;;;;;;;6239464;22;20027;-80
2022/07/13 03:49:42;;;;;;;10.95;8.70;;;;;;;;;;6239391;22;20201;-81
2022/07/13 03:52:08;;;;;;;12.45;9.30;;;;;;;;;;6265142;22;20483;-82
2022/07/13 03:54:34;;;;;;;10.30;9.32;;;;;;;;;;6240916;22;20479;-81
2022/07/13 03:57:00;;;;;;;14.85;9.00;;;;;;;;;;6236881;23;20063;-81
2022/07/13 03:59:26;;;;;;;10.45;9.20;;;;;;;;;;6235449;23;20066;-82
2022/07/13 04:01:52;;;;;;;11.40;9.35;;;;;;;;;;6209666;23;20111;-81
2022/07/13 04:04:22;;;;;;;10.02;8.80;;;;;;;;;;6235487;23;20020;-81
2022/07/13 04:06:48;;;;;;;9.10;8.30;;;;;;;;;;6210075;23;20347;-79
2022/07/13 04:09:14;;;;;;;9.18;8.38;;;;;;;;;;6236441;23;20545;-80
2022/07/13 04:11:40;;;;;;;9.23;8.10;;;;;;;;;;6235546;23;20026;-78
2022/07/13 04:14:06;;;;;;;10.63;7.50;;;;;;;;;;6184524;23;20020;-80
2022/07/13 04:16:32;;;;;;;10.73;8.07;;;;;;;;;;6236219;23;20012;-80
2022/07/13 04:18:58;;;;;;;9.30;8.27;;;;;;;;;;6208441;23;20129;-80
2022/07/13 04:21:24;;;;;;;9.73;8.82;;;;;;;;;;6233600;22;20740;-80
2022/07/13 04:23:51;;;;;;;9.07;8.27;;;;;;;;;;6234429;23;20023;-80
2022/07/13 04:26:29;;;;;;;11.00;8.52;;;;;;;;;;6210464;23;20031;-81
2022/07/13 04:28:59;;;;;;;9.23;7.40;;;;;;;;;;6236055;23;20027;-80
2022/07/13 04:31:27;;;;;;;14.10;9.27;;;;;;;;;;6209627;23;20080;-80
2022/07/13 04:33:59;;;;;;;8.80;7.82;;;;;;;;;;6208744;23;20026;-81
2022/07/13 04:36:25;;;;;;;10.40;7.70;;;;;;;;;;6238081;23;20020;-79
2022/07/13 04:38:52;;;;;;;10.05;8.38;;;;;;;;;;6210534;23;20197;-81
2022/07/13 04:41:18;;;;;;;8.70;7.82;;;;;;;;;;6240152;23;20020;-81
2022/07/13 04:43:45;;;;;;;9.88;7.45;;;;;;;;;;6238785;22;20390;-81
2022/07/13 04:46:12;;;;;;;8.38;7.47;;;;;;;;;;6212963;23;20070;-80
2022/07/13 04:48:45;;;;;;;13.70;8.30;;;;;;;;;;6211891;23;20048;-81
2022/07/13 04:51:17;;;;;;;10.77;8.05;;;;;;;;;;6211880;23;20131;-81
2022/07/13 04:53:43;;;;;;;8.80;7.63;;;;;;;;;;6223703;22;20027;-82
2022/07/13 04:56:09;;;;;;;9.52;8.18;;;;;;;;;;6268922;22;20020;-82
2022/07/13 04:58:35;;;;;;;10.27;7.80;;;;;;;;;;6267147;22;20020;-81
2022/07/13 05:01:04;;;;;;;14.15;8.45;;;;;;;;;;6241665;22;20034;-81
2022/07/13 05:03:30;;;;;;;9.00;7.78;;;;;;;;;;6240514;22;20440;-80
2022/07/13 05:05:56;;;;;;;8.70;7.90;;;;;;;;;;6268189;22;20016;-81
2022/07/13 05:08:23;;;;;;;9.38;7.70;;;;;;;;;;6215792;22;20486;-81
2022/07/13 05:10:50;;;;;;;15.38;8.43;;;;;;;;;;6268842;22;20060;-80
2022/07/13 05:13:16;;;;;;;12.80;8.48;;;;;;;;;;6268368;22;20020;-81
2022/07/13 05:15:42;;;;;;;8.25;7.55;;;;;;;;;;6267500;22;20103;-82
2022/07/13 05:18:08;;;;;;;11.50;8.07;;;;;;;;;;6268324;22;20019;-79
2022/07/13 05:20:34;;;;;;;8.88;7.82;;;;;;;;;;6268082;22;20019;-81
2022/07/13 05:23:00;;;;;;;9.27;8.27;;;;;;;;;;6268165;22;20097;-81
2022/07/13 05:25:26;;;;;;;9.02;7.97;;;;;;;;;;6268086;22;20069;-81
2022/07/13 05:27:52;;;;;;;10.55;7.95;;;;;;;;;;6266782;22;20035;-81
2022/07/13 05:30:18;;;;;;;8.43;7.72;;;;;;;;;;6267900;22;20035;-80
2022/07/13 05:32:45;;;;;;;9.02;7.38;;;;;;;;;;6240453;22;20026;-79
2022/07/13 05:35:11;;;;;;;8.02;7.30;;;;;;;;;;6268266;22;20662;-81
2022/07/13 05:37:37;;;;;;;9.02;7.70;;;;;;;;;;6238744;22;20015;-81
2022/07/13 05:40:04;;;;;;;8.05;7.25;;;;;;;;;;6267957;22;20020;-81
2022/07/13 05:42:30;;;;;;;10.10;7.85;;;;;;;;;;6266304;22;20580;-80
2022/07/13 05:44:56;;;;;;;9.27;8.38;;;;;;;;;;6240504;22;20134;-80
2022/07/13 05:47:23;;;;;;;8.15;7.35;;;;;;;;;;6238752;22;20553;-80
2022/07/13 05:49:50;;;;;;;10.32;8.35;;;;;;;;;;6265264;22;20031;-81
2022/07/13 05:52:16;;;;;;;9.68;8.68;;;;;;;;;;6240538;22;20034;-80
2022/07/13 05:54:42;;;;;;;12.02;8.20;;;;;;;;;;6215814;22;20015;-80
2022/07/13 05:57:08;;;;;;;9.20;8.30;;;;;;;;;;6267437;22;20020;-80
2022/07/13 05:59:34;;;;;;;9.50;8.45;;;;;;;;;;6265781;22;20024;-79
2022/07/13 06:02:01;;;;;;;13.30;9.38;;;;;;;;;;6215542;22;20034;-82
2022/07/13 06:04:27;;;;;;;10.45;9.35;;;;;;;;;;6268310;22;21115;-81
2022/07/13 06:06:53;;;;;;;10.20;9.20;;;;;;;;;;6266549;22;20055;-79
2022/07/13 06:09:23;;;;;;;12.75;9.63;;;;;;;;;;6214074;22;20034;-79
2022/07/13 06:11:49;;;;;;;11.88;10.30;;;;;;;;;;6268677;22;20343;-80
2022/07/13 06:14:21;;;;;;;11.13;10.02;;;;;;;;;;6267081;22;20066;-79
2022/07/13 06:16:47;;;;;;;10.00;8.98;;;;;;;;;;6266041;22;20115;-81
2022/07/13 06:19:13;;;;;;;12.68;10.57;;;;;;;;;;6268093;22;20073;-80
2022/07/13 06:21:39;;;;;;;14.15;10.65;;;;;;;;;;6269248;22;20020;-83
2022/07/13 06:24:05;;;;;;;16.27;10.18;;;;;;;;;;6270042;22;20019;-81
2022/07/13 06:26:32;;;;;;;12.65;10.60;;;;;;;;;;6242304;22;20058;-81
2022/07/13 06:28:58;;;;;;;11.13;9.73;;;;;;;;;;6269477;22;20098;-80
2022/07/13 06:31:24;;;;;;;15.23;10.57;;;;;;;;;;6267153;22;20023;-81
2022/07/13 06:33:52;;;;;;;11.93;10.57;;;;;;;;;;6268188;22;20396;-80
2022/07/13 06:36:19;;;;;;;12.77;10.90;;;;;;;;;;6269364;22;20379;-81
2022/07/13 06:38:45;;;;;;;12.65;10.23;;;;;;;;;;6268921;22;20096;-80
2022/07/13 06:41:11;;;;;;;18.52;10.75;;;;;;;;;;6269673;22;20643;-81
2022/07/13 06:43:37;;;;;;;12.32;10.55;;;;;;;;;;6268749;22;20023;-81
2022/07/13 06:46:06;;;;;;;11.93;9.90;;;;;;;;;;6270266;22;20024;-84
2022/07/13 06:48:32;;;;;;;18.83;11.05;;;;;;;;;;6270267;22;20030;-81
2022/07/13 06:51:01;;;;;;;16.60;10.43;;;;;;;;;;6241254;22;20035;-82
2022/07/13 06:53:27;;;;;;;19.92;10.85;;;;;;;;;;6247903;22;20016;-82
2022/07/13 06:55:54;;;;;;;17.20;10.45;;;;;;;;;;6276428;22;20106;-82
2022/07/13 06:58:21;;;;;;;22.63;10.70;;;;;;;;;;6248163;22;20028;-85
2022/07/13 07:00:47;;;;;;;13.93;10.05;;;;;;;;;;6276501;22;20051;-84
2022/07/13 07:03:13;;;;;;;14.05;10.93;;;;;;;;;;6277227;22;20031;-83
2022/07/13 07:05:42;;;;;;;16.52;10.68;;;;;;;;;;6277024;22;20107;-84
2022/07/13 07:08:08;;;;;;;20.08;11.52;;;;;;;;;;6225002;22;20020;-83
2022/07/13 07:10:40;;;;;;;13.68;10.55;;;;;;;;;;6277402;22;20123;-85
2022/07/13 07:13:06;;;;;;;19.15;12.43;;;;;;;;;;6250305;22;20020;-84
2022/07/13 07:15:32;;;;;;;15.73;11.85;;;;;;;;;;6277858;22;20015;-82
2022/07/13 07:17:59;;;;;;;14.63;10.98;;;;;;;;;;6224319;22;20368;-84
2022/07/13 07:20:25;;;;;;;17.45;12.60;;;;;;;;;;6250309;22;20035;-82
2022/07/13 07:22:52;;;;;;;20.23;13.00;;;;;;;;;;6277399;22;20384;-84
2022/07/13 07:25:19;;;;;;;18.83;12.65;;;;;;;;;;6276640;22;20053;-84
2022/07/13 07:27:53;;;;;;;22.70;12.98;;;;;;;;;;6276334;22;20043;-84
2022/07/13 07:30:19;;;;;;;18.42;12.82;;;;;;;;;;6249832;22;20027;-82
2022/07/13 07:32:45;;;;;;;21.30;13.73;;;;;;;;;;6276342;22;20023;-82
2022/07/13 07:35:11;;;;;;;21.27;13.80;;;;;;;;;;6251066;22;20030;-83
2022/07/13 07:37:39;;;;;;;19.63;14.27;;;;;;;;;;6276416;22;20055;-83
2022/07/13 07:40:06;;;;;;;15.52;13.50;;;;;;;;;;6224336;22;20090;-82
2022/07/13 07:42:32;;;;;;;25.52;14.07;;;;;;;;;;6223894;22;20099;-83
2022/07/13 07:44:58;;;;;;;18.65;13.55;;;;;;;;;;6276494;22;20024;-81
2022/07/13 07:47:25;;;;;;;17.98;13.50;;;;;;;;;;6248287;22;20016;-82
2022/07/13 07:49:54;;;;;;;18.23;12.50;;;;;;;;;;6275148;22;20066;-83
2022/07/13 07:52:20;;;;;;;20.95;12.98;;;;;;;;;;6276725;22;20019;-83
2022/07/13 07:54:47;;;;;;;18.20;12.75;;;;;;;;;;6275510;22;20040;-79
2022/07/13 07:57:14;;;;;;;19.00;12.13;;;;;;;;;;6247920;22;20471;-80
2022/07/13 07:59:41;;;;;;;21.73;11.90;;;;;;;;;;6274345;22;20074;-79
2022/07/13 08:02:07;;;;;;;18.63;13.27;;;;;;;;;;6247804;22;20087;-81
2022/07/13 08:04:34;;;;;;;16.67;11.77;;;;;;;;;;6273079;22;20046;-82
2022/07/13 08:07:00;;;;;;;20.73;11.07;;;;;;;;;;6248811;22;20386;-82
2022/07/13 08:09:26;;;;;;;17.67;11.65;;;;;;;;;;6196431;22;20019;-82
2022/07/13 08:11:52;;;;;;;16.95;11.60;;;;;;;;;;6247788;22;20027;-82
2022/07/13 08:14:25;;;;;;;14.73;9.82;;;;;;;;;;6274630;22;20058;-82
2022/07/13 08:16:51;;;;;;;13.75;10.75;;;;;;;;;;6222461;22;20024;-82
2022/07/13 08:19:18;;;;;;;15.40;9.13;;;;;;;;;;6198038;22;20019;-82
2022/07/13 08:21:44;;;;;;;13.05;9.93;;;;;;;;;;6248146;22;20023;-82
2022/07/13 08:24:10;;;;;;;16.05;10.75;;;;;;;;;;6276361;22;20035;-81
2022/07/13 08:26:36;;;;;;;13.65;10.38;;;;;;;;;;6221845;22;20012;-81
2022/07/13 08:29:03;;;;;;;14.50;9.40;;;;;;;;;;6277694;22;20019;-86
2022/07/13 08:31:29;;;;;;;14.68;10.50;;;;;;;;;;6227881;22;20019;-87
2022/07/13 08:40:02;;;;;;;11.50;8.55;;;;;;;;;;6270424;22;20517;-86
2022/07/13 08:42:28;;;;;;;14.95;8.20;;;;;;;;;;6255900;22;20411;-86
2022/07/13 08:45:07;;;;;;;13.27;6.20;;;;;;;;;;6255650;22;20015;-86
2022/07/13 08:47:47;;;;;;;11.07;6.78;;;;;;;;;;6231766;22;20020;-89
2022/07/13 08:50:15;;;;;;;9.05;5.80;;;;;;;;;;6231052;22;20031;-89
2022/07/13 08:52:56;;;;;;;8.43;5.90;;;;;;;;;;6186644;23;20052;-82
2022/07/13 08:55:22;;;;;;;10.55;5.45;;;;;;;;;;6210158;23;20021;-81
2022/07/13 08:57:49;;;;;;;9.82;5.15;;;;;;;;;;6214748;23;20385;-82
2022/07/13 09:00:17;;;;;;;9.18;4.55;;;;;;;;;;6215246;23;20028;-82
2022/07/13 09:02:43;;;;;;;7.40;4.85;;;;;;;;;;6217258;23;20017;-82
2022/07/13 09:05:09;;;;;;;6.10;4.95;;;;;;;;;;6215554;23;20021;-83
2022/07/13 09:07:36;;;;;;;7.28;5.05;;;;;;;;;;6217937;23;20107;-83
2022/07/13 09:10:03;;;;;;;9.60;5.93;;;;;;;;;;6189467;23;20021;-81
2022/07/13 09:12:30;;;;;;;14.48;7.45;;;;;;;;;;6190874;23;20029;-82
2022/07/13 09:15:00;;;;;;;8.20;5.53;;;;;;;;;;6191290;23;20021;-82
2022/07/13 09:17:26;;;;;;;8.73;5.57;;;;;;;;;;6215193;23;20020;-82
2022/07/13 09:19:52;;;;;;;9.40;4.32;;;;;;;;;;6216005;23;20020;-82
2022/07/13 09:22:18;;;;;;;7.43;5.07;;;;;;;;;;6216298;23;20434;-82
2022/07/13 09:24:49;;;;;;;6.78;5.10;;;;;;;;;;6277046;22;20079;-83
2022/07/13 09:27:15;;;;;;;5.70;4.93;;;;;;;;;;6279247;22;20075;-82
2022/07/13 09:29:42;;;;;;;7.85;7.05;;;;;;;;;;6228082;22;20073;-82
2022/07/13 09:32:11;;;;;;;12.38;8.57;;;;;;;;;;6251515;22;20015;-82
2022/07/13 09:34:53;;;;;;;11.55;6.53;;;;;;;;;;6228735;22;20039;-83
2022/07/13 09:37:21;;;;;;;9.45;7.07;;;;;;;;;;6279719;22;20026;-82
2022/07/13 09:39:55;;;;;;;13.23;5.93;;;;;;;;;;6251957;22;20030;-81
2022/07/13 09:42:27;;;;;;;9.80;6.90;;;;;;;;;;6278408;22;20020;-81
2022/07/13 09:47:43;;;;;;;9.25;7.50;;;;;;;;;;6279612;22;20067;-82
2022/07/13 09:50:12;;;;;;;11.13;8.05;;;;;;;;;;6278179;22;20161;-80
2022/07/13 09:52:38;;;;;;;8.30;6.57;;;;;;;;;;6252733;22;20015;-82
2022/07/13 09:55:06;;;;;;;10.57;6.55;;;;;;;;;;6264220;22;20046;-81
2022/07/13 09:57:34;;;;;;;12.40;8.40;;;;;;;;;;6278877;22;20019;-82
2022/07/13 10:00:00;;;;;;;6.07;5.30;;;;;;;;;;6279647;22;20068;-82
2022/07/13 10:02:27;;;;;;;6.38;4.50;;;;;;;;;;6278430;22;20107;-82
2022/07/13 10:04:53;;;;;;;13.07;5.35;;;;;;;;;;6203188;22;20034;-82
2022/07/13 10:07:20;;;;;;;13.13;6.45;;;;;;;;;;6226106;22;20058;-83
2022/07/13 10:09:46;;;;;;;12.77;6.97;;;;;;;;;;6203978;22;20829;-82
2022/07/13 10:12:12;;;;;;;7.45;6.47;;;;;;;;;;6200760;22;20019;-82
2022/07/13 10:14:39;;;;;;;9.50;6.18;;;;;;;;;;6253387;22;20015;-82
2022/07/13 10:17:13;;;;;;;15.00;9.52;;;;;;;;;;6279955;22;20023;-82
2022/07/13 10:19:50;;;;;;;14.15;9.88;;;;;;;;;;6252883;22;20019;-80
2022/07/13 10:22:21;;;;;;;9.40;6.70;;;;;;;;;;6253771;22;20067;-82
2022/07/13 10:24:57;;;;;;;11.38;9.98;;;;;;;;;;6250689;22;20047;-82
2022/07/13 10:27:25;;;;;;;9.68;8.10;;;;;;;;;;6280464;22;20023;-82
2022/07/13 10:30:12;;;;;;;10.35;7.50;;;;;;;;;;6276611;22;20024;-82
2022/07/13 10:32:39;;;;;;;14.30;8.27;;;;;;;;;;6229179;22;20344;-82
2022/07/13 10:35:09;;;;;;;7.45;5.00;;;;;;;;;;6281461;22;20055;-82
2022/07/13 10:37:54;;;;;;;6.72;4.25;;;;;;;;;;6280996;22;20463;-80
2022/07/13 10:40:21;;;;;;;6.50;5.32;;;;;;;;;;6254177;22;20383;-83
2022/07/13 10:43:12;;;;;;;5.95;4.82;;;;;;;;;;6250513;22;20016;-82
2022/07/13 10:45:43;;;;;;;8.48;4.32;;;;;;;;;;6233596;22;20029;-82
2022/07/13 10:48:25;;;;;;;5.85;3.67;;;;;;;;;;6249951;22;20027;-82
2022/07/13 10:50:52;;;;;;;8.32;3.88;;;;;;;;;;6251346;22;20023;-80
2022/07/13 10:53:19;;;;;;;4.03;3.10;;;;;;;;;;6226979;22;20016;-83
2022/07/13 10:55:51;;;;;;;5.50;3.55;;;;;;;;;;6200291;22;20030;-79
2022/07/13 10:58:37;;;;;;;6.95;3.97;;;;;;;;;;6252202;22;20019;-82
2022/07/13 11:01:21;;;;;;;4.93;3.65;;;;;;;;;;6275020;22;20015;-81
2022/07/13 11:03:48;;;;;;;6.95;3.20;;;;;;;;;;6248821;22;20020;-79
2022/07/13 11:06:23;;;;;;;6.28;3.13;;;;;;;;;;6249854;22;20630;-82
2022/07/13 11:09:08;;;;;;;3.40;2.20;;;;;;;;;;6248933;22;20046;-81
2022/07/13 11:11:35;;;;;;;3.25;2.58;;;;;;;;;;6277962;22;20146;-79
2022/07/13 11:14:21;;;;;;;5.82;2.50;;;;;;;;;;6199679;22;20062;-82
2022/07/13 11:16:48;;;;;;;4.97;2.70;;;;;;;;;;6278690;22;20174;-82
2022/07/13 11:19:15;;;;;;;3.42;2.70;;;;;;;;;;6247762;22;20054;-82
2022/07/13 11:22:00;;;;;;;4.85;3.42;;;;;;;;;;6278706;22;20019;-81
2022/07/13 11:27:17;;;;;;;6.72;2.90;;;;;;;;;;6254049;22;20418;-83
2022/07/13 11:30:03;;;;;;;6.75;4.78;;;;;;;;;;6279334;22;20083;-84
2022/07/13 11:32:33;;;;;;;4.03;3.50;;;;;;;;;;6249778;22;20020;-81
2022/07/13 11:35:00;;;;;;;5.30;3.55;;;;;;;;;;6251738;22;20031;-82
2022/07/13 11:37:32;;;;;;;5.10;3.78;;;;;;;;;;6277487;22;20448;-83
2022/07/13 11:39:58;;;;;;;5.83;3.50;;;;;;;;;;6276823;22;20079;-81
2022/07/13 11:42:24;;;;;;;5.03;3.10;;;;;;;;;;6278648;22;20020;-84
2022/07/13 11:45:00;;;;;;;6.97;3.50;;;;;;;;;;6276988;22;20102;-81
2022/07/13 11:47:27;;;;;;;3.83;2.50;;;;;;;;;;6252766;22;20966;-81
2022/07/13 11:49:54;;;;;;;11.45;3.78;;;;;;;;;;6196907;22;20019;-82
2022/07/13 11:52:24;;;;;;;6.63;3.67;;;;;;;;;;6278740;22;20344;-82
2022/07/13 11:55:03;;;;;;;7.65;3.25;;;;;;;;;;6276687;22;20094;-80
2022/07/13 11:57:33;;;;;;;13.68;3.63;;;;;;;;;;6281797;22;20016;-78
2022/07/13 12:00:06;;;;;;;7.00;3.22;;;;;;;;;;6280432;22;20026;-80
2022/07/13 12:02:33;;;;;;;7.00;3.00;;;;;;;;;;6252786;22;20020;-81
2022/07/13 12:05:17;;;;;;;6.47;3.17;;;;;;;;;;6254213;22;20024;-83
2022/07/13 12:07:44;;;;;;;5.88;3.53;;;;;;;;;;6276938;22;20067;-82
2022/07/13 12:10:10;;;;;;;6.00;3.45;;;;;;;;;;6228681;22;20106;-81
2022/07/13 12:12:38;;;;;;;12.93;3.35;;;;;;;;;;6276285;22;20317;-82
2022/07/13 12:15:05;;;;;;;6.72;2.42;;;;;;;;;;6281477;22;20020;-79
2022/07/13 12:17:40;;;;;;;4.18;2.45;;;;;;;;;;6252761;22;20020;-83
2022/07/13 12:20:14;;;;;;;6.05;2.53;;;;;;;;;;6280314;22;20020;-80
2022/07/13 12:22:40;;;;;;;6.20;2.65;;;;;;;;;;6284228;22;20030;-82
2022/07/13 12:25:07;;;;;;;9.30;2.47;;;;;;;;;;6253739;22;20022;-83
2022/07/13 12:27:33;;;;;;;9.30;2.53;;;;;;;;;;6283011;22;20019;-83
2022/07/13 12:30:09;;;;;;;4.45;2.47;;;;;;;;;;6280774;22;20031;-82
2022/07/13 12:32:54;;;;;;;5.88;3.08;;;;;;;;;;6282409;22;20482;-80
2022/07/13 12:35:20;;;;;;;8.20;3.03;;;;;;;;;;6284002;22;20031;-84
2022/07/13 12:37:50;;;;;;;6.03;2.50;;;;;;;;;;6254026;22;20054;-83
2022/07/13 12:40:35;;;;;;;8.25;2.60;;;;;;;;;;6283595;22;20079;-82
2022/07/13 12:43:01;;;;;;;7.90;2.58;;;;;;;;;;6228654;22;20164;-84
2022/07/13 12:48:31;;;;;;;7.25;2.70;;;;;;;;;;6285456;22;20024;-85
2022/07/13 12:50:58;;;;;;;9.52;2.33;;;;;;;;;;6282940;22;20008;-83
2022/07/13 12:53:25;;;;;;;7.10;2.58;;;;;;;;;;6284849;22;20035;-83
2022/07/13 12:55:51;;;;;;;6.18;2.30;;;;;;;;;;6282573;22;20012;-82
2022/07/13 12:58:19;;;;;;;9.60;2.47;;;;;;;;;;6231376;22;20027;-84
2022/07/13 13:00:45;;;;;;;7.65;2.33;;;;;;;;;;6252983;22;20015;-81
2022/07/13 13:03:11;;;;;;;4.10;2.30;;;;;;;;;;6280267;22;20463;-83
2022/07/13 13:05:37;;;;;;;5.07;2.15;;;;;;;;;;6251686;22;20474;-79
2022/07/13 13:08:03;;;;;;;8.63;2.45;;;;;;;;;;6280133;22;20031;-82
2022/07/13 13:10:31;;;;;;;4.65;2.17;;;;;;;;;;6224556;22;20026;-80
2022/07/13 13:12:57;;;;;;;6.07;2.28;;;;;;;;;;6276753;22;20031;-83
2022/07/13 13:15:23;;;;;;;4.97;2.42;;;;;;;;;;6251297;22;20016;-81
2022/07/13 13:17:50;;;;;;;8.93;2.60;;;;;;;;;;6249645;22;20037;-80
2022/07/13 13:20:18;;;;;;;8.85;2.50;;;;;;;;;;6254961;22;20027;-83
2022/07/13 13:22:44;;;;;;;9.02;2.50;;;;;;;;;;6279979;22;20482;-83
2022/07/13 13:25:10;;;;;;;6.13;2.60;;;;;;;;;;6283980;22;20031;-81
2022/07/13 13:27:42;;;;;;;4.38;2.17;;;;;;;;;;6280203;22;20058;-83
2022/07/13 13:32:56;;;;;;;10.93;2.80;;;;;;;;;;6284523;22;20475;-87
2022/07/13 13:35:23;;;;;;;6.35;2.33;;;;;;;;;;6254518;22;20093;-84
2022/07/13 13:37:49;;;;;;;7.88;2.25;;;;;;;;;;6256020;22;20063;-81
2022/07/13 13:40:15;;;;;;;4.53;2.20;;;;;;;;;;6253063;22;20031;-85
2022/07/13 13:42:41;;;;;;;4.20;1.90;;;;;;;;;;6282921;22;20015;-86
2022/07/13 13:45:08;;;;;;;9.70;2.20;;;;;;;;;;6277958;22;20081;-82
2022/07/13 13:47:34;;;;;;;7.72;2.22;;;;;;;;;;6206176;22;20012;-81
2022/07/13 13:50:00;;;;;;;5.70;1.80;;;;;;;;;;6253850;22;20022;-86
2022/07/13 13:52:27;;;;;;;10.98;2.30;;;;;;;;;;6283378;22;20023;-84
2022/07/13 13:54:56;;;;;;;10.57;2.30;;;;;;;;;;6253309;22;20112;-86
2022/07/13 13:57:22;;;;;;;9.18;2.00;;;;;;;;;;6254874;22;20022;-80
2022/07/13 13:59:49;;;;;;;6.00;2.08;;;;;;;;;;6282016;22;20020;-87
2022/07/13 14:02:15;;;;;;;7.28;2.03;;;;;;;;;;6203889;22;20019;-84
2022/07/13 14:04:43;;;;;;;8.23;2.55;;;;;;;;;;6284499;22;20075;-81
2022/07/13 14:07:09;;;;;;;6.47;2.30;;;;;;;;;;6281693;22;20027;-82
2022/07/13 14:09:35;;;;;;;7.90;2.00;;;;;;;;;;6258113;22;20016;-82
2022/07/13 14:12:01;;;;;;;4.82;1.90;;;;;;;;;;6229815;22;20067;-86
2022/07/13 14:14:27;;;;;;;9.95;2.17;;;;;;;;;;6284232;22;20028;-84
2022/07/13 14:16:53;;;;;;;8.90;2.22;;;;;;;;;;6280469;22;20023;-88
2022/07/13 14:19:19;;;;;;;5.38;1.92;;;;;;;;;;6282982;22;20035;-85
2022/07/13 14:21:48;;;;;;;9.88;2.17;;;;;;;;;;6281059;22;20067;-85
2022/07/13 14:24:14;;;;;;;7.78;2.35;;;;;;;;;;6254447;22;20015;-81
2022/07/13 14:26:40;;;;;;;9.07;2.13;;;;;;;;;;6204923;22;20018;-84
2022/07/13 14:29:07;;;;;;;9.65;2.17;;;;;;;;;;6279981;22;20016;-84
2022/07/13 14:31:33;;;;;;;6.97;2.00;;;;;;;;;;6255386;22;20019;-83
2022/07/13 14:33:59;;;;;;;9.95;2.08;;;;;;;;;;6282049;22;20016;-83
2022/07/13 14:36:26;;;;;;;6.80;2.05;;;;;;;;;;6283979;22;20020;-87
2022/07/13 14:38:53;;;;;;;10.88;2.60;;;;;;;;;;6280563;22;20464;-85
2022/07/13 14:41:19;;;;;;;12.25;2.17;;;;;;;;;;6283120;22;20016;-83
2022/07/13 14:43:45;;;;;;;10.63;2.63;;;;;;;;;;6280311;22;20023;-84
2022/07/13 14:46:12;;;;;;;7.38;2.20;;;;;;;;;;6282310;22;20070;-86
2022/07/13 14:48:38;;;;;;;9.15;2.28;;;;;;;;;;6282436;22;20016;-85
2022/07/13 14:51:04;;;;;;;12.00;2.70;;;;;;;;;;6253874;22;20020;-84
2022/07/13 14:53:30;;;;;;;8.95;2.30;;;;;;;;;;6282348;22;20029;-85
2022/07/13 14:55:58;;;;;;;9.85;2.30;;;;;;;;;;6280048;22;20081;-86
2022/07/13 14:58:24;;;;;;;12.25;2.97;;;;;;;;;;6282387;22;20470;-83